createdAt,value
2023-03-29T00:02:42.197Z,14.90
2023-03-29T00:08:04.581Z,13.40
2023-03-29T00:13:27.244Z,13.10
2023-03-29T00:18:49.327Z,12.90
2023-03-29T00:24:11.167Z,14.40
2023-03-29T00:29:33.084Z,14.00
2023-03-29T00:34:57.041Z,11.40
2023-03-29T00:40:19.453Z,14.30
2023-03-29T00:45:41.180Z,13.20
2023-03-29T00:51:09.901Z,18.40
2023-03-29T01:02:05.427Z,12.20
2023-03-29T01:07:35.484Z,17.10
2023-03-29T01:13:02.620Z,12.70
2023-03-29T01:18:24.559Z,12.80
2023-03-29T01:24:07.575Z,11.80
2023-03-29T01:29:47.350Z,14.50
2023-03-29T01:35:19.834Z,13.90
2023-03-29T01:40:42.654Z,12.60
2023-03-29T01:46:05.939Z,17.10
2023-03-29T01:52:01.693Z,13.60
2023-03-29T01:57:25.253Z,15.00
2023-03-29T02:02:47.936Z,15.80
2023-03-29T02:08:12.561Z,17.40
2023-03-29T02:13:35.588Z,16.70
2023-03-29T02:18:58.119Z,20.50
2023-03-29T02:24:22.186Z,17.10
2023-03-29T02:29:46.996Z,15.80
2023-03-29T02:35:20.869Z,17.60
2023-03-29T02:40:43.006Z,16.90
2023-03-29T02:46:06.473Z,15.30
2023-03-29T02:51:32.140Z,14.80
2023-03-29T02:56:59.969Z,15.90
2023-03-29T03:02:22.070Z,19.20
2023-03-29T03:07:44.091Z,14.70
2023-03-29T03:13:06.126Z,13.40
2023-03-29T03:18:30.687Z,14.00
2023-03-29T03:23:52.231Z,14.40
2023-03-29T03:29:15.700Z,17.50
2023-03-29T03:34:59.083Z,17.60
2023-03-29T03:40:21.243Z,17.80
2023-03-29T03:45:44.008Z,16.60
2023-03-29T03:51:12.320Z,18.10
2023-03-29T03:56:34.972Z,20.20
2023-03-29T04:02:05.265Z,16.40
2023-03-29T04:07:27.751Z,19.60
2023-03-29T04:13:17.257Z,18.30
2023-03-29T04:18:59.019Z,21.60
2023-03-29T04:24:23.507Z,24.50
2023-03-29T04:30:02.313Z,24.20
2023-03-29T04:35:47.164Z,21.00
2023-03-29T04:41:10.152Z,21.10
2023-03-29T04:46:40.333Z,21.10
2023-03-29T04:52:34.457Z,20.20
2023-03-29T04:57:57.283Z,22.00
2023-03-29T05:03:39.684Z,18.60
2023-03-29T05:09:11.149Z,21.10
2023-03-29T05:14:41.503Z,20.80
2023-03-29T05:20:11.376Z,21.80
2023-03-29T05:25:33.817Z,22.00
2023-03-29T05:31:01.091Z,20.50
2023-03-29T05:36:24.985Z,18.00
2023-03-29T05:41:47.004Z,16.40
2023-03-29T05:47:41.789Z,19.00
2023-03-29T05:53:03.978Z,20.70
2023-03-29T05:58:26.865Z,18.30
2023-03-29T06:03:49.462Z,17.40
2023-03-29T06:09:12.983Z,19.20
2023-03-29T06:14:41.531Z,21.80
2023-03-29T06:20:29.356Z,22.90
2023-03-29T06:25:55.550Z,21.40
2023-03-29T06:31:17.797Z,19.00
2023-03-29T06:36:40.257Z,18.00
2023-03-29T06:42:10.050Z,19.00
2023-03-29T06:47:58.877Z,18.30
2023-03-29T06:53:22.127Z,15.80
2023-03-29T06:58:50.039Z,16.90
2023-03-29T07:04:27.244Z,15.50
2023-03-29T07:10:13.121Z,15.70
2023-03-29T07:15:53.937Z,14.20
2023-03-29T07:21:36.683Z,12.50
2023-03-29T07:27:04.453Z,11.30
2023-03-29T07:32:31.243Z,10.50
2023-03-29T07:38:08.400Z,8.90
2023-03-29T07:43:31.236Z,11.70
2023-03-29T07:48:53.393Z,7.40
2023-03-29T07:54:15.093Z,6.60
2023-03-29T07:59:48.752Z,6.10
2023-03-29T08:05:23.264Z,7.90
2023-03-29T08:10:53.585Z,7.00
2023-03-29T08:16:38.445Z,7.30
2023-03-29T08:22:03.974Z,7.30
2023-03-29T08:27:40.340Z,6.90
2023-03-29T08:33:02.968Z,5.70
2023-03-29T08:38:25.284Z,6.70
2023-03-29T08:43:59.568Z,5.70
2023-03-29T08:49:38.252Z,6.10
2023-03-29T08:55:03.065Z,5.60
2023-03-29T09:00:51.315Z,4.70
2023-03-29T09:06:14.543Z,4.00
2023-03-29T09:11:56.737Z,3.60
2023-03-29T09:17:25.075Z,3.10
2023-03-29T09:23:22.541Z,3.90
2023-03-29T09:29:37.387Z,4.10
2023-03-29T09:35:08.527Z,4.50
2023-03-29T09:40:38.033Z,3.60
2023-03-29T09:46:16.195Z,3.50
2023-03-29T09:51:38.997Z,3.10
2023-03-29T09:57:01.247Z,3.70
2023-03-29T10:02:24.626Z,3.10
2023-03-29T10:07:54.455Z,8.00
2023-03-29T10:13:30.656Z,7.10
2023-03-29T10:18:54.834Z,4.20
2023-03-29T10:24:25.598Z,3.40
2023-03-29T10:29:47.636Z,2.90
2023-03-29T10:35:17.996Z,3.60
2023-03-29T10:40:45.336Z,3.00
2023-03-29T10:46:13.485Z,2.50
2023-03-29T10:51:36.223Z,4.50
2023-03-29T10:56:59.469Z,2.90
2023-03-29T11:02:42.001Z,2.40
2023-03-29T11:08:42.515Z,2.50
2023-03-29T11:14:28.252Z,3.30
2023-03-29T11:20:13.137Z,3.10
2023-03-29T11:25:48.410Z,3.40
2023-03-29T11:31:16.988Z,2.70
2023-03-29T11:36:53.951Z,3.80
2023-03-29T11:42:25.185Z,6.60
2023-03-29T11:47:47.592Z,3.70
2023-03-29T11:53:15.139Z,3.80
2023-03-29T11:58:39.830Z,3.90
2023-03-29T12:04:10.806Z,4.10
2023-03-29T12:09:41.581Z,4.20
2023-03-29T12:15:13.918Z,5.20
2023-03-29T12:20:40.033Z,3.30
2023-03-29T12:26:13.932Z,3.60
2023-03-29T12:32:10.192Z,3.20
2023-03-29T12:38:02.723Z,3.80
2023-03-29T12:43:53.311Z,3.90
2023-03-29T12:49:34.656Z,3.00
2023-03-29T12:54:59.327Z,7.20
2023-03-29T13:00:26.552Z,4.00
2023-03-29T13:06:02.832Z,3.90
2023-03-29T13:11:43.008Z,4.50
2023-03-29T13:17:18.493Z,6.40
2023-03-29T13:22:49.946Z,4.60
2023-03-29T13:28:21.024Z,4.50
2023-03-29T13:33:52.701Z,4.00
2023-03-29T13:39:22.722Z,3.80
2023-03-29T13:44:46.330Z,3.80
2023-03-29T13:50:16.890Z,5.70
2023-03-29T13:55:46.667Z,6.50
2023-03-29T14:01:28.411Z,7.10
2023-03-29T14:06:53.291Z,5.90
2023-03-29T14:12:15.861Z,2.60
2023-03-29T14:17:39.439Z,5.20
2023-03-29T14:23:01.229Z,6.80
2023-03-29T14:28:24.180Z,4.30
2023-03-29T14:33:46.173Z,4.80
2023-03-29T14:39:19.348Z,5.80
2023-03-29T14:44:40.873Z,6.30
2023-03-29T14:50:04.032Z,5.30
2023-03-29T14:55:27.494Z,4.70
2023-03-29T15:00:51.076Z,5.40
2023-03-29T15:06:13.405Z,6.50
2023-03-29T15:11:36.011Z,6.20
2023-03-29T15:17:03.303Z,4.30
2023-03-29T15:22:31.900Z,6.90
2023-03-29T15:27:57.549Z,5.80
2023-03-29T15:33:23.101Z,4.40
2023-03-29T15:38:49.474Z,4.70
2023-03-29T15:44:13.117Z,5.80
2023-03-29T15:49:34.732Z,5.20
2023-03-29T15:54:56.762Z,4.90
2023-03-29T16:00:19.995Z,9.20
2023-03-29T16:05:43.231Z,6.20
2023-03-29T16:11:06.951Z,10.30
2023-03-29T16:16:29.330Z,6.50
2023-03-29T16:21:51.623Z,10.90
2023-03-29T16:27:13.754Z,11.40
2023-03-29T16:32:36.038Z,13.10
2023-03-29T16:37:58.318Z,16.80
2023-03-29T16:43:20.142Z,8.90
2023-03-29T16:48:42.375Z,7.60
2023-03-29T16:54:04.423Z,10.60
2023-03-29T16:59:27.120Z,7.90
2023-03-29T17:04:49.263Z,8.90
2023-03-29T17:10:12.602Z,8.80
2023-03-29T17:15:36.706Z,12.00
2023-03-29T17:21:01.773Z,13.60
2023-03-29T17:26:23.704Z,12.00
2023-03-29T17:31:48.675Z,11.40
2023-03-29T17:37:10.879Z,11.10
2023-03-29T17:42:32.908Z,11.20
2023-03-29T17:47:55.873Z,9.90
2023-03-29T17:53:17.564Z,11.10
2023-03-29T17:58:42.727Z,10.70
2023-03-29T18:04:05.243Z,11.80
2023-03-29T18:09:30.587Z,11.20
2023-03-29T18:14:52.613Z,22.30
2023-03-29T18:20:14.636Z,15.40
2023-03-29T18:25:36.773Z,13.80
2023-03-29T18:30:58.687Z,13.10
2023-03-29T18:36:20.910Z,17.50
2023-03-29T18:41:43.117Z,16.70
2023-03-29T18:47:05.682Z,19.80
2023-03-29T18:52:27.876Z,18.50
2023-03-29T18:57:54.197Z,25.60
2023-03-29T19:03:16.028Z,15.00
2023-03-29T19:08:39.850Z,12.20
2023-03-29T19:14:02.472Z,14.90
2023-03-29T19:19:26.406Z,17.40
2023-03-29T19:24:48.139Z,15.00
2023-03-29T19:30:10.384Z,12.00
2023-03-29T19:35:32.404Z,13.20
2023-03-29T19:40:54.312Z,13.80
2023-03-29T19:46:16.057Z,11.80
2023-03-29T19:51:38.181Z,14.10
2023-03-29T19:57:00.170Z,13.90
2023-03-29T20:02:22.239Z,12.00
2023-03-29T20:07:44.765Z,12.20
2023-03-29T20:13:06.845Z,11.70
2023-03-29T20:18:30.936Z,10.20
2023-03-29T20:23:52.561Z,9.00
2023-03-29T20:29:15.601Z,7.80
2023-03-29T20:34:37.328Z,8.60
2023-03-29T20:40:01.063Z,9.80
2023-03-29T20:45:23.492Z,11.70
2023-03-29T20:50:47.429Z,18.30
2023-03-29T20:56:09.543Z,10.60
2023-03-29T21:01:35.074Z,8.40
2023-03-29T21:06:57.336Z,8.90
2023-03-29T21:12:20.342Z,8.90
2023-03-29T21:17:42.346Z,6.90
2023-03-29T21:23:04.628Z,7.50
2023-03-29T21:28:26.627Z,8.20
2023-03-29T21:33:48.188Z,7.40
2023-03-29T21:39:09.713Z,6.90
2023-03-29T21:44:33.789Z,8.90
2023-03-29T21:49:56.174Z,7.30
2023-03-29T21:55:18.194Z,7.70
2023-03-29T22:00:40.092Z,8.50
2023-03-29T22:06:04.484Z,7.80
2023-03-29T22:11:28.699Z,7.80
2023-03-29T22:16:50.292Z,6.50
2023-03-29T22:22:14.308Z,7.40
2023-03-29T22:27:36.907Z,7.10
2023-03-29T22:32:58.620Z,7.60
2023-03-29T22:38:20.847Z,7.70
2023-03-29T22:43:42.603Z,7.10
2023-03-29T22:49:04.412Z,7.30
2023-03-29T22:54:26.155Z,7.10
2023-03-29T22:59:47.987Z,17.60
2023-03-29T23:05:10.022Z,8.50
2023-03-29T23:10:31.846Z,8.00
2023-03-29T23:15:57.409Z,8.30
2023-03-29T23:21:19.013Z,7.80
2023-03-29T23:26:40.839Z,6.90
2023-03-29T23:32:02.261Z,6.50
2023-03-29T23:37:25.100Z,5.60
2023-03-29T23:42:48.207Z,4.40
2023-03-29T23:48:10.061Z,5.00
2023-03-29T23:53:32.298Z,4.70
2023-03-29T23:58:54.426Z,5.10
